首页
METAR-TAF:

METAR-TAF

机场 :

拉勒米, 怀俄明州, 美国

纬度: 41-18-43N, 经度: 105-40-30W, 海拔: 2218米

当前天气观测

该预报发布于56分钟前的14:53 UTC
风速16节,风向西转西南
温度 2°C
湿度 64%
气压 1009 hPa
能見度: 16.1公里
少量云层高于5000英尺

METAR: KLAR 081453Z AUTO 25016KT 10SM FEW050 02/M04 A2981 RMK AO2 SLP071 T00171044 56010

时间: 08:49 (15:49 UTC)

预报

该预报发布于4小时和29分钟前的11:20 UTC
预报有效从08日的 12点(UTC)到 09日的 12点(UTC)
风速14节,风向西,有时为24节阵风
能見度: 10公里
多云层高于15000英尺
从 09日的 0400点(UTC)
风速14节,风向西转西北
能見度: 10公里
多云层高于9000英尺
从 09日的 0700点(UTC)
风速12节,风向西北
能見度: 10公里
阴天层高于2500英尺

TAF: KLAR 081120Z 0812/0912 26014G24KT P6SM BKN150 FM090400 29014KT P6SM BKN090 FM090700 32012KT P6SM OVC025

超过4000个机场的气象观测和天气预报(METAR&TAF报告)。

可查询的气象台以黄色和红色小点在地图上表示。

将鼠标移到小点上方,可查看气象台名称。

然后点击查看天气观测和预报。

如需切换地图:点击带黑十字的绿色按钮放大地图;点击带横线的绿色按钮缩小地图;或者点击绿色箭头查看邻近地区的地图。


METAR-TAF: